createdAt,value
2023-05-24T00:02:22.985Z,4.08
2023-05-24T00:05:20.468Z,3.9
2023-05-24T00:08:17.040Z,3.66
2023-05-24T00:11:13.625Z,4.38
2023-05-24T00:14:09.121Z,3.9
2023-05-24T00:17:07.130Z,3.9799999999999995
2023-05-24T00:20:02.930Z,3.46
2023-05-24T00:23:00.808Z,3.8200000000000003
2023-05-24T00:25:56.357Z,3.84
2023-05-24T00:28:52.944Z,3.5799999999999996
2023-05-24T00:31:48.530Z,3.3200000000000003
2023-05-24T00:34:44.069Z,3.6399999999999997
2023-05-24T00:37:44.648Z,4.279999999999999
2023-05-24T00:40:41.350Z,4.5600000000000005
2023-05-24T00:43:36.708Z,3.7399999999999998
2023-05-24T00:46:38.499Z,3.88
2023-05-24T00:49:34.850Z,3.5199999999999996
2023-05-24T00:52:36.389Z,3.7
2023-05-24T00:55:33.987Z,3.66
2023-05-24T00:58:30.515Z,3.96
2023-05-24T01:01:31.494Z,3.6
2023-05-24T01:04:27.642Z,3.1800000000000006
2023-05-24T01:07:33.180Z,3.8400000000000007
2023-05-24T01:10:40.982Z,3.2400000000000007
2023-05-24T01:13:47.246Z,4.1
2023-05-24T01:16:47.862Z,3.9
2023-05-24T01:20:02.515Z,3.6
2023-05-24T01:23:18.828Z,3.6399999999999997
2023-05-24T01:26:26.346Z,3.2800000000000002
2023-05-24T01:29:23.932Z,3.0799999999999996
2023-05-24T01:32:20.528Z,2.7800000000000002
2023-05-24T01:35:16.020Z,2.9799999999999995
2023-05-24T01:38:12.613Z,3.2399999999999998
2023-05-24T01:41:15.143Z,3.78
2023-05-24T01:44:18.665Z,3.54
2023-05-24T01:47:22.346Z,3.12
2023-05-24T01:50:26.750Z,3.5799999999999996
2023-05-24T01:53:26.341Z,3.02
2023-05-24T01:56:25.820Z,3.1600000000000006
2023-05-24T01:59:24.386Z,3.46
2023-05-24T02:02:25.108Z,3.1799999999999997
2023-05-24T02:05:21.489Z,3.78
2023-05-24T02:08:18.038Z,3.7600000000000002
2023-05-24T02:11:14.624Z,3.78
2023-05-24T02:14:11.176Z,3.4
2023-05-24T02:17:14.709Z,3.8
2023-05-24T02:20:13.340Z,3.94
2023-05-24T02:23:08.849Z,3.9
2023-05-24T02:26:06.402Z,3.3400000000000007
2023-05-24T02:29:03.941Z,3.9799999999999995
2023-05-24T02:32:01.515Z,3.6399999999999997
2023-05-24T02:34:59.082Z,3.96
2023-05-24T02:37:58.696Z,3.84
2023-05-24T02:40:54.200Z,3.5799999999999996
2023-05-24T02:43:49.747Z,4.08
2023-05-24T02:46:47.532Z,4.1
2023-05-24T02:49:42.882Z,4.180000000000001
2023-05-24T02:52:40.417Z,4.339999999999999
2023-05-24T02:55:43.946Z,4.46
2023-05-24T02:58:40.557Z,4.680000000000001
2023-05-24T03:01:36.176Z,4.74
2023-05-24T03:04:31.644Z,4.840000000000001
2023-05-24T03:07:28.197Z,5.220000000000001
2023-05-24T03:10:23.757Z,4.56
2023-05-24T03:13:24.638Z,5.2
2023-05-24T03:16:20.916Z,5.2
2023-05-24T03:19:17.430Z,4.7
2023-05-24T03:22:12.955Z,4.619999999999999
2023-05-24T03:25:09.550Z,5.16
2023-05-24T03:28:05.611Z,5.28
2023-05-24T03:31:00.684Z,4.7
2023-05-24T03:33:56.250Z,4.82
2023-05-24T03:36:52.840Z,5.720000000000001
2023-05-24T03:39:48.339Z,5
2023-05-24T03:42:43.944Z,5.4799999999999995
2023-05-24T03:45:40.471Z,4.619999999999999
2023-05-24T03:48:36.055Z,4.4799999999999995
2023-05-24T03:51:31.552Z,4.9
2023-05-24T03:54:28.167Z,4.720000000000001
2023-05-24T03:57:24.709Z,5
2023-05-24T04:00:21.249Z,4.32
2023-05-24T04:03:20.028Z,4.92
2023-05-24T04:06:17.606Z,4.9
2023-05-24T04:09:12.956Z,5.119999999999999
2023-05-24T04:12:08.480Z,4.220000000000001
2023-05-24T04:15:05.095Z,4.76
2023-05-24T04:18:02.686Z,5.14
2023-05-24T04:20:59.203Z,4.159999999999999
2023-05-24T04:23:55.764Z,4.359999999999999
2023-05-24T04:26:52.272Z,4.2
2023-05-24T04:29:49.928Z,4.720000000000001
2023-05-24T04:32:47.489Z,4.4799999999999995
2023-05-24T04:35:45.033Z,4.38
2023-05-24T04:38:41.575Z,4.1
2023-05-24T04:41:38.034Z,4.619999999999999
2023-05-24T04:44:33.649Z,3.9599999999999995
2023-05-24T04:47:30.273Z,4.32
2023-05-24T04:50:26.761Z,4.619999999999999
2023-05-24T04:53:23.348Z,4.66
2023-05-24T04:56:19.912Z,4.220000000000001
2023-05-24T04:59:15.442Z,4.380000000000001
2023-05-24T05:02:11.229Z,3.54
2023-05-24T05:05:07.555Z,4.659999999999999
2023-05-24T05:08:03.154Z,4.46
2023-05-24T05:11:00.670Z,4.7
2023-05-24T05:13:57.301Z,4.0200000000000005
2023-05-24T05:16:52.849Z,4.5600000000000005
2023-05-24T05:19:48.530Z,4.5
2023-05-24T05:22:45.947Z,4.62
2023-05-24T05:25:41.508Z,4.18
2023-05-24T05:28:37.056Z,5.1
2023-05-24T05:31:32.597Z,4.0600000000000005
2023-05-24T05:34:28.169Z,4.82
2023-05-24T05:37:23.734Z,4.28
2023-05-24T05:40:19.290Z,5
2023-05-24T05:43:15.226Z,4.74
2023-05-24T05:46:11.510Z,4.3
2023-05-24T05:49:06.968Z,4.119999999999999
2023-05-24T05:52:04.563Z,4.3
2023-05-24T05:55:01.118Z,4.540000000000001
2023-05-24T05:57:57.664Z,4.7
2023-05-24T06:00:55.200Z,4.18
2023-05-24T06:03:51.859Z,4.4
2023-05-24T06:06:49.465Z,5.2
2023-05-24T06:09:46.854Z,4.68
2023-05-24T06:12:42.730Z,4.540000000000001
2023-05-24T06:15:40.988Z,4.14
2023-05-24T06:18:38.581Z,4.4
2023-05-24T06:21:37.164Z,4.5200000000000005
2023-05-24T06:24:34.758Z,4.46
2023-05-24T06:27:31.241Z,3.9
2023-05-24T06:30:26.872Z,4.119999999999999
2023-05-24T06:33:23.358Z,4.279999999999999
2023-05-24T06:36:20.946Z,4.6
2023-05-24T06:39:17.492Z,4.040000000000001
2023-05-24T06:42:16.016Z,3.9
2023-05-24T06:45:12.594Z,3.8600000000000003
2023-05-24T06:48:10.203Z,4.32
2023-05-24T06:51:06.734Z,4.1
2023-05-24T06:54:02.257Z,4.42
2023-05-24T06:56:58.813Z,4.339999999999999
2023-05-24T06:59:54.381Z,4.359999999999999
2023-05-24T07:02:59.960Z,4.2
2023-05-24T07:05:56.495Z,4.26
2023-05-24T07:08:52.047Z,3.94
2023-05-24T07:11:48.603Z,4.4399999999999995
2023-05-24T07:14:44.154Z,4.42
2023-05-24T07:17:40.740Z,3.9799999999999995
2023-05-24T07:20:42.430Z,3.44
2023-05-24T07:23:38.761Z,3.6399999999999997
2023-05-24T07:26:34.381Z,4.58
2023-05-24T07:29:29.925Z,4.5200000000000005
2023-05-24T07:32:28.588Z,4.1
2023-05-24T07:35:27.141Z,4.74
2023-05-24T07:38:22.635Z,3.6800000000000006
2023-05-24T07:41:19.176Z,4.32
2023-05-24T07:44:15.764Z,4.339999999999999
2023-05-24T07:47:12.286Z,4.82
2023-05-24T07:50:08.880Z,4.56
2023-05-24T07:53:06.401Z,4.619999999999999
2023-05-24T07:56:02.952Z,4.5600000000000005
2023-05-24T07:59:04.526Z,4.54
2023-05-24T08:02:05.114Z,4.38
2023-05-24T08:05:00.654Z,4.4399999999999995
2023-05-24T08:07:58.194Z,4.42
2023-05-24T08:10:54.757Z,3.6799999999999997
2023-05-24T08:13:50.304Z,3.9200000000000004
2023-05-24T08:16:45.953Z,4.339999999999999
2023-05-24T08:19:41.441Z,4.24
2023-05-24T08:22:36.968Z,4.0600000000000005
2023-05-24T08:25:33.550Z,3.66
2023-05-24T08:28:29.123Z,4.62
2023-05-24T08:31:25.692Z,4.24
2023-05-24T08:34:22.210Z,3.84
2023-05-24T08:37:19.848Z,4
2023-05-24T08:40:16.345Z,3.9200000000000004
2023-05-24T08:43:12.889Z,3.4200000000000004
2023-05-24T08:46:10.531Z,3.38
2023-05-24T08:49:09.131Z,3.4200000000000004
2023-05-24T08:52:07.618Z,4.0200000000000005
2023-05-24T08:55:05.196Z,3.6800000000000006
2023-05-24T08:58:03.681Z,3.3
2023-05-24T09:01:00.269Z,3.6399999999999997
2023-05-24T09:03:56.829Z,3.02
2023-05-24T09:06:56.406Z,3.4
2023-05-24T09:09:56.876Z,3.28
2023-05-24T09:12:55.432Z,2.8600000000000003
2023-05-24T09:15:53.122Z,3.1199999999999997
2023-05-24T09:18:52.519Z,2.9799999999999995
2023-05-24T09:21:50.324Z,3.38
2023-05-24T09:24:47.686Z,3.66
2023-05-24T09:27:49.220Z,2.62
2023-05-24T09:30:45.965Z,2.94
2023-05-24T09:33:42.321Z,3.0200000000000005
2023-05-24T09:36:42.917Z,3.3400000000000007
2023-05-24T09:39:41.450Z,3.4799999999999995
2023-05-24T09:42:38.010Z,3.3600000000000003
2023-05-24T09:45:38.537Z,3.1399999999999997
2023-05-24T09:48:48.147Z,3.1799999999999997
2023-05-24T09:51:51.800Z,2.84
2023-05-24T09:54:50.217Z,3.12
2023-05-24T09:57:50.752Z,3.3
2023-05-24T10:00:48.652Z,3.2
2023-05-24T10:03:53.088Z,3.12
2023-05-24T10:06:50.349Z,3.62
2023-05-24T10:09:46.956Z,3.02
2023-05-24T10:12:46.544Z,2.6800000000000006
2023-05-24T10:15:45.038Z,2.7
2023-05-24T10:18:42.628Z,3.16
2023-05-24T10:21:42.326Z,3.2600000000000002
2023-05-24T10:24:43.698Z,3.0799999999999996
2023-05-24T10:27:45.233Z,3.3200000000000003
2023-05-24T10:30:51.839Z,3.2
2023-05-24T10:33:52.658Z,2.9
2023-05-24T10:36:51.938Z,3.12
2023-05-24T10:39:47.450Z,2.94
2023-05-24T10:42:46.007Z,2.92
2023-05-24T10:45:53.538Z,2.96
2023-05-24T10:49:01.145Z,2.7400000000000007
2023-05-24T10:52:09.714Z,3.6
2023-05-24T10:55:08.164Z,2.82
2023-05-24T10:58:05.677Z,3.22
2023-05-24T11:01:03.225Z,2.9
2023-05-24T11:04:07.781Z,3.16
2023-05-24T11:07:15.417Z,3.0199999999999996
2023-05-24T11:10:23.866Z,3.66
2023-05-24T11:13:27.400Z,3.44
2023-05-24T11:16:32.938Z,3.22
2023-05-24T11:19:32.508Z,3.38
2023-05-24T11:22:31.112Z,3.8200000000000003
2023-05-24T11:25:29.615Z,2.8200000000000003
2023-05-24T11:28:25.169Z,3.84
2023-05-24T11:31:26.715Z,3.4800000000000004
2023-05-24T11:34:23.254Z,3.84
2023-05-24T11:37:22.502Z,3.8600000000000003
2023-05-24T11:40:23.375Z,3.2
2023-05-24T11:43:21.936Z,3.1399999999999997
2023-05-24T11:46:20.616Z,3.2400000000000007
2023-05-24T11:52:29.626Z,3.3
2023-05-24T11:55:27.098Z,3.4799999999999995
2023-05-24T11:58:32.696Z,3.7399999999999998
2023-05-24T12:01:28.235Z,3.6800000000000006
2023-05-24T12:04:24.872Z,3.94
2023-05-24T12:07:23.312Z,3.2399999999999998
2023-05-24T12:10:22.820Z,3.8200000000000003
2023-05-24T12:13:22.405Z,3.2400000000000007
2023-05-24T12:16:23.123Z,3.28
2023-05-24T12:22:17.081Z,3.4800000000000004
2023-05-24T12:25:15.654Z,3.1399999999999997
2023-05-24T12:28:21.178Z,3.4200000000000004
2023-05-24T12:31:18.743Z,3.1800000000000006
2023-05-24T12:34:16.288Z,2.94
2023-05-24T12:37:15.868Z,3.04
2023-05-24T12:40:16.410Z,3.2600000000000002
2023-05-24T12:43:14.982Z,2.7800000000000002
2023-05-24T12:46:11.514Z,2.7800000000000002
2023-05-24T12:49:07.046Z,3.0200000000000005
2023-05-24T12:52:03.678Z,3
2023-05-24T12:55:00.178Z,3.4
2023-05-24T12:57:57.781Z,3.0799999999999996
2023-05-24T13:00:54.581Z,2.92
2023-05-24T13:03:50.867Z,3.1199999999999997
2023-05-24T13:06:48.496Z,2.5599999999999996
2023-05-24T13:09:45.965Z,3
2023-05-24T13:12:41.513Z,3.2
2023-05-24T13:15:39.088Z,3.0799999999999996
2023-05-24T13:18:34.645Z,3.1399999999999997
2023-05-24T13:21:32.249Z,3.0599999999999996
2023-05-24T13:24:27.802Z,2.96
2023-05-24T13:27:23.492Z,3.2400000000000007
2023-05-24T13:30:28.008Z,3.38
2023-05-24T13:33:25.421Z,3.2600000000000002
2023-05-24T13:36:21.967Z,2.96
2023-05-24T13:39:19.534Z,3.66
2023-05-24T13:42:17.179Z,2.84
2023-05-24T13:45:12.691Z,2.96
2023-05-24T13:48:10.260Z,3.4
2023-05-24T13:51:06.788Z,2.8200000000000003
2023-05-24T13:54:04.345Z,3.44
2023-05-24T13:57:04.889Z,2.86
2023-05-24T14:00:02.509Z,2.7600000000000002
2023-05-24T14:02:59.023Z,3.5799999999999996
2023-05-24T14:05:55.639Z,3.5799999999999996
2023-05-24T14:08:52.159Z,3.1
2023-05-24T14:11:47.732Z,3.34
2023-05-24T14:17:44.927Z,3.2600000000000002
2023-05-24T14:20:41.475Z,2.7600000000000002
2023-05-24T14:23:38.952Z,3.04
2023-05-24T14:26:35.479Z,2.5799999999999996
2023-05-24T14:29:32.045Z,3.22
2023-05-24T14:32:27.654Z,3.6199999999999997
2023-05-24T14:35:23.190Z,3.34
2023-05-24T14:38:18.707Z,3.1
2023-05-24T14:41:18.288Z,3.1199999999999997
2023-05-24T14:44:13.913Z,3.44
2023-05-24T14:47:09.371Z,3.2
2023-05-24T14:50:05.936Z,3.5
2023-05-24T14:53:08.499Z,3.6399999999999997
2023-05-24T14:56:06.060Z,4.040000000000001
2023-05-24T14:59:03.629Z,4.119999999999999
2023-05-24T15:01:59.151Z,3.7
2023-05-24T15:04:54.716Z,3.9599999999999995
2023-05-24T15:07:50.262Z,3.7
2023-05-24T15:10:45.996Z,3.2
2023-05-24T15:13:42.422Z,3.8200000000000003
2023-05-24T15:16:39.041Z,3.7800000000000002
2023-05-24T15:19:34.547Z,3.4200000000000004
2023-05-24T15:22:33.100Z,3.5200000000000005
2023-05-24T15:25:28.620Z,2.66
2023-05-24T15:28:26.262Z,3.0599999999999996
2023-05-24T15:31:23.813Z,3.56
2023-05-24T15:34:20.892Z,3.1399999999999997
2023-05-24T15:37:19.891Z,3.1199999999999997
2023-05-24T15:40:15.424Z,3.46
2023-05-24T15:43:11.013Z,3.9200000000000004
2023-05-24T15:46:07.560Z,3.2
2023-05-24T15:49:05.117Z,3.94
2023-05-24T15:52:03.488Z,3.6800000000000006
2023-05-24T15:55:00.232Z,3.0599999999999996
2023-05-24T15:57:57.772Z,3.7800000000000002
2023-05-24T16:00:54.368Z,3.5799999999999996
2023-05-24T16:03:50.965Z,3.4799999999999995
2023-05-24T16:06:47.475Z,4.62
2023-05-24T16:09:46.001Z,3.6199999999999997
2023-05-24T16:12:42.575Z,3.84
2023-05-24T16:15:41.118Z,3.1599999999999997
2023-05-24T16:18:37.695Z,4.18
2023-05-24T16:21:34.229Z,4.0600000000000005
2023-05-24T16:24:29.821Z,3.8600000000000003
2023-05-24T16:27:25.358Z,3.8600000000000003
2023-05-24T16:30:21.956Z,3.54
2023-05-24T16:33:18.482Z,3.9800000000000004
2023-05-24T16:36:14.026Z,3.2800000000000002
2023-05-24T16:39:11.609Z,3.94
2023-05-24T16:42:09.135Z,3.8199999999999994
2023-05-24T16:45:05.740Z,3.8200000000000003
2023-05-24T16:48:01.395Z,4.38
2023-05-24T16:50:58.065Z,4.640000000000001
2023-05-24T16:53:55.393Z,4.659999999999999
2023-05-24T16:56:54.979Z,4.4399999999999995
2023-05-24T16:59:50.913Z,4.06
2023-05-24T17:02:46.138Z,4.220000000000001
2023-05-24T17:05:43.607Z,4.3
2023-05-24T17:08:41.199Z,3.9200000000000004
2023-05-24T17:11:37.742Z,4.26
2023-05-24T17:14:34.299Z,3.3800000000000003
2023-05-24T17:17:29.924Z,3.8200000000000003
2023-05-24T17:20:26.514Z,3.5799999999999996
2023-05-24T17:23:25.032Z,3.6800000000000006
2023-05-24T17:26:22.555Z,3.8599999999999994
2023-05-24T17:29:18.085Z,3.8200000000000003
2023-05-24T17:32:13.637Z,3.72
2023-05-24T17:35:09.245Z,4.239999999999999
2023-05-24T17:38:04.793Z,3.6799999999999997
2023-05-24T17:41:00.335Z,4.260000000000001
2023-05-24T17:44:00.930Z,3.84
2023-05-24T17:46:58.452Z,4.119999999999999
2023-05-24T17:49:54.037Z,3.72
2023-05-24T17:52:51.596Z,4.540000000000001
2023-05-24T17:55:47.091Z,3.9
2023-05-24T17:58:44.946Z,4.460000000000001
2023-05-24T18:01:46.327Z,3.9200000000000004
2023-05-24T18:04:42.806Z,4.08
2023-05-24T18:07:38.351Z,4.779999999999999
2023-05-24T18:10:33.924Z,4.42
2023-05-24T18:13:29.469Z,3.84
2023-05-24T18:16:25.075Z,4.56
2023-05-24T18:19:21.601Z,4.04
2023-05-24T18:22:19.143Z,4.18
2023-05-24T18:25:14.698Z,4.26
2023-05-24T18:28:11.289Z,4.62
2023-05-24T18:31:09.851Z,4.8
2023-05-24T18:34:05.387Z,4.619999999999999
2023-05-24T18:37:00.955Z,5.78
2023-05-24T18:39:58.503Z,4.58
2023-05-24T18:42:54.104Z,4.2
2023-05-24T18:45:49.608Z,5.659999999999999
2023-05-24T18:48:46.190Z,4.4399999999999995
2023-05-24T18:51:41.762Z,4.32
2023-05-24T18:54:37.334Z,5.58
2023-05-24T18:57:36.905Z,5.12
2023-05-24T19:00:32.442Z,5.58
2023-05-24T19:03:28.111Z,5.16
2023-05-24T19:06:23.513Z,5.46
2023-05-24T19:09:19.120Z,5.5600000000000005
2023-05-24T19:12:15.667Z,4.68
2023-05-24T19:15:12.289Z,4.9
2023-05-24T19:18:08.894Z,5.62
2023-05-24T19:21:05.364Z,5.62
2023-05-24T19:24:02.908Z,4.9
2023-05-24T19:27:00.499Z,5.7
2023-05-24T19:29:59.023Z,5.6
2023-05-24T19:32:54.751Z,5.18
2023-05-24T19:35:51.158Z,5.4799999999999995
2023-05-24T19:38:49.689Z,5.42
2023-05-24T19:41:46.275Z,4.760000000000001
2023-05-24T19:44:43.817Z,5.08
2023-05-24T19:47:39.396Z,4.92
2023-05-24T19:50:35.975Z,5.1
2023-05-24T19:53:31.512Z,4.5600000000000005
2023-05-24T19:56:27.096Z,5.040000000000001
2023-05-24T19:59:23.621Z,4.66
2023-05-24T20:02:20.185Z,5.220000000000001
2023-05-24T20:05:16.762Z,3.6199999999999997
2023-05-24T20:08:13.333Z,4.14
2023-05-24T20:11:12.842Z,3.5799999999999996
2023-05-24T20:14:08.393Z,3.5
2023-05-24T20:17:05.013Z,3.8200000000000003
2023-05-24T20:20:01.599Z,3.7
2023-05-24T20:22:58.092Z,4
2023-05-24T20:25:54.656Z,3.7
2023-05-24T20:28:52.219Z,3.7800000000000002
2023-05-24T20:31:49.080Z,3.3200000000000003
2023-05-24T20:34:44.326Z,3.5200000000000005
2023-05-24T20:37:40.919Z,4.640000000000001
2023-05-24T20:40:37.454Z,3.9
2023-05-24T20:43:34.030Z,4.119999999999999
2023-05-24T20:46:29.720Z,4.02
2023-05-24T20:49:25.085Z,4.14
2023-05-24T20:52:20.674Z,3.4799999999999995
2023-05-24T20:55:17.231Z,3.7
2023-05-24T20:58:14.815Z,3.7600000000000002
2023-05-24T21:01:10.390Z,3.84
2023-05-24T21:04:05.903Z,3.7400000000000007
2023-05-24T21:07:01.507Z,3.94
2023-05-24T21:09:58.057Z,4.64
2023-05-24T21:12:53.649Z,4.4799999999999995
2023-05-24T21:15:50.519Z,3.56
2023-05-24T21:18:48.707Z,4.04
2023-05-24T21:21:44.297Z,3.72
2023-05-24T21:24:40.866Z,4.1
2023-05-24T21:27:36.383Z,4.58
2023-05-24T21:30:31.990Z,4.52
2023-05-24T21:33:27.513Z,4.8
2023-05-24T21:36:23.129Z,4.06
2023-05-24T21:39:19.644Z,4.76
2023-05-24T21:42:15.240Z,4.36
2023-05-24T21:45:12.832Z,4.859999999999999
2023-05-24T21:48:09.399Z,4.16
2023-05-24T21:51:05.912Z,4.16
2023-05-24T21:54:01.455Z,4.9799999999999995
2023-05-24T21:56:58.012Z,4.28
2023-05-24T21:59:53.576Z,5.340000000000001
2023-05-24T22:02:49.245Z,4
2023-05-24T22:05:45.881Z,4.32
2023-05-24T22:08:42.255Z,4.5200000000000005
2023-05-24T22:11:40.816Z,3.88
2023-05-24T22:14:36.354Z,4.64
2023-05-24T22:17:32.978Z,3.9
2023-05-24T22:20:33.563Z,4.78
2023-05-24T22:23:31.037Z,4.02
2023-05-24T22:26:27.592Z,3.66
2023-05-24T22:29:23.134Z,4.44
2023-05-24T22:32:18.745Z,4.159999999999999
2023-05-24T22:35:15.326Z,4.68
2023-05-24T22:38:10.865Z,3.7399999999999998
2023-05-24T22:41:08.403Z,4.360000000000001
2023-05-24T22:44:03.974Z,4.76
2023-05-24T22:47:01.518Z,4.2
2023-05-24T22:50:02.078Z,4.3
2023-05-24T22:52:58.627Z,3.94
2023-05-24T22:55:55.197Z,4.0200000000000005
2023-05-24T22:58:53.752Z,4.040000000000001
2023-05-24T23:01:49.393Z,3.8600000000000003
2023-05-24T23:04:45.913Z,3.7199999999999998
2023-05-24T23:07:41.415Z,3.7600000000000002
2023-05-24T23:10:39.987Z,3.72
2023-05-24T23:13:36.513Z,3.3400000000000007
2023-05-24T23:16:34.126Z,3.38
2023-05-24T23:19:31.627Z,3.9599999999999995
2023-05-24T23:22:27.174Z,3.8199999999999994
2023-05-24T23:25:22.774Z,3.16
2023-05-24T23:28:19.330Z,3
2023-05-24T23:52:57.649Z,2.8
2023-05-24T23:55:54.199Z,2.7199999999999998
2023-05-24T23:58:49.755Z,3
